Arkansaw, WI

9:17 AM CDT on August 21, 2014 (GMT -0500)
SIGHT-SEA-ER II | Change Station
CLOSE
Current Station
Personal Weather Station
Location: Lake City, MN
Elevation: 728 ft
Nearby Weather Stations

Elev 728 ft 44.47 °N, 92.30 °W | Updated 11 minutes ago

Light Rain
Light Rain
71.1 °F
Feels Like 71.1 °F
N
0.0
Wind Variable Wind from SE
Gusts 10.0 mph

Today
High -- | Low -- °F
--% Chance of Precip.
Yesterday
High -- | Low -- °F
Precip. -- in
6:17 AM 8:04 PM
Waning Crescent, 14% visible
Pressure 29.80 in
Visibility 7.0 miles
Clouds Mostly Cloudy 800 ft
Dew Point 70 °F
Humidity 97%
Rainfall 0.47 in
Snow Depth Not available.
UV 1 out of 12
Pollen 6.60 out of 12
Air Quality Not available.
Flu Activity Not available.
METAR KRGK 211354Z AUTO 13009G15KT 7SM -RA BKN008 22/21 A2980 RMK AO2 P0002 LTG DSNT NE THRU SW

More Conditions Fewer Conditions

Pressure 29.80 in
Visibility 7.0 miles
Clouds Mostly Cloudy 800 ft
Dew Point 70 °F
Humidity 97%
Rainfall 0.47 in
Snow Depth Not available.
UV 1 out of 12
Pollen 6.60 out of 12
Air Quality Not available.
Flu Activity Not available.
METAR KRGK 211354Z AUTO 13009G15KT 7SM -RA BKN008 22/21 A2980 RMK AO2 P0002 LTG DSNT NE THRU SW

More Conditions Fewer Conditions

10-Day Weather Forecast

Almanac

Astronomy

Aug. 21, 2014 Rise Set
Actual Time 6:17 AM CDT 8:04 PM CDT
Civil Twilight 5:46 AM CDT 8:34 PM CDT
Nautical Twilight 5:08 AM CDT 9:12 PM CDT
Astronomical Twilight 4:27 AM CDT 9:53 PM CDT
Moon 2:44 AM CDT 5:36 PM CDT
Length of Visible Light 14h 48m
Length of Day
13h 46m
Tomorrow will be 2m 51s shorter.
Waning Crescent, 14% of the Moon is Illuminated
Today
Waning Crescent
Aug 25
New
Sep 2
First Quarter
Sep 8
Full
Sep 15
Last Quarter

Today's Extremes

State Highs State Lows

Community

WunderPhotos

Upload Photos

1,745,921 photos uploaded!

WunderBlogs® & News

By Dr. Jeff Masters
Director of Meteorology, Weather Underground
By Kari Strenfel
Meteorologist, Weather Underground
By Christopher C. Burt
Weather Historian, Weather Underground
August 21, 2014
August 21, 2014
August 21, 2014

Nearby

Snow Depth

Station Depth Elevation
No new snow has been reported.

Earthquake Activity

City Distance Mag. Time & Date
No recent earthquake activity has been reported nearby.
Minimum magnitude displayed is 2.5.

Coastal Water Temperatures

Place Temperature
No Stations Reporting

Nearby Weather Stations